Terminal Aerodrome Forecast
Issued by NWS

Home | Current Version | Previous Version | Text Only | Print | Product List | Glossary On
Versions: 1 2 3 4 5 6 7 8 9 10 11 12 13 14 15 16 17 18 19 20 21 22 23 24 25 26 27 28
000
FTUS46 KMTR 181700
TAFSFO
TAF
KSFO 181720Z 1818/1924 03003KT P6SM FEW010
     FM181900 32010KT P6SM FEW012
     FM182300 30015G20KT P6SM SKC
     FM190400 29008KT P6SM FEW008
     FM190800 27003KT P6SM BKN007=

USA.gov is the U.S. government's official web portal to all federal, state and local government web resources and services.